Time;durP1;ratioP1;P1;durP2;ratioP2;P2;SDS_P1;SDS_P2;PMS_P1;PMS_P2;Temp;Humidity;BMP_temperature;BMP_pressure;BME280_temperature;BME280_humidity;BME280_pressure;Samples;Min_cycle;Max_cycle;Signal;HPM_P1;HPM_P2
2021/10/31 00:01:55;;;;;;;33.55;26.95;;;11.80;99.90;;;;;;5030855;28;20481;-78
2021/10/31 00:04:21;;;;;;;29.15;25.80;;;11.70;99.90;;;;;;5014220;28;20136;-79
2021/10/31 00:06:47;;;;;;;34.67;26.55;;;11.70;99.90;;;;;;5030258;28;20076;-78
2021/10/31 00:09:13;;;;;;;39.17;27.85;;;11.60;99.90;;;;;;5038760;28;20417;-78
2021/10/31 00:11:40;;;;;;;35.03;27.17;;;11.60;99.90;;;;;;5031326;28;20375;-79
2021/10/31 00:14:06;;;;;;;38.60;28.40;;;11.60;99.90;;;;;;5030628;28;20053;-78
2021/10/31 00:16:32;;;;;;;40.20;28.67;;;11.50;99.90;;;;;;5030496;28;20111;-78
2021/10/31 00:18:58;;;;;;;36.75;27.77;;;11.40;99.90;;;;;;4993758;28;20050;-79
2021/10/31 00:21:25;;;;;;;38.13;28.48;;;11.40;99.90;;;;;;4993358;28;20512;-78
2021/10/31 00:23:53;;;;;;;37.83;30.13;;;11.40;99.90;;;;;;4981395;28;20378;-78
2021/10/31 00:26:19;;;;;;;42.90;29.85;;;11.40;99.90;;;;;;4997380;28;20052;-78
2021/10/31 00:28:45;;;;;;;39.00;28.70;;;11.30;99.90;;;;;;4996750;28;20046;-79
2021/10/31 00:31:11;;;;;;;41.20;29.33;;;11.30;99.90;;;;;;4997398;28;20049;-79
2021/10/31 00:33:38;;;;;;;40.95;30.45;;;11.30;99.90;;;;;;5014058;28;20064;-78
2021/10/31 00:36:04;;;;;;;39.65;29.73;;;11.30;99.90;;;;;;5030067;28;20102;-78
2021/10/31 00:38:31;;;;;;;44.80;31.58;;;11.20;99.90;;;;;;4997308;28;20045;-79
2021/10/31 00:40:57;;;;;;;45.78;32.47;;;11.20;99.90;;;;;;5029666;28;20508;-78
2021/10/31 00:43:23;;;;;;;42.78;32.13;;;11.20;99.90;;;;;;5029949;28;20392;-78
2021/10/31 00:45:49;;;;;;;47.72;34.03;;;11.10;99.90;;;;;;4997401;28;20041;-78
2021/10/31 00:48:16;;;;;;;39.95;32.35;;;11.10;99.90;;;;;;4996822;28;20449;-78
2021/10/31 00:50:43;;;;;;;43.67;31.17;;;11.10;99.90;;;;;;5012884;28;20045;-78
2021/10/31 00:53:10;;;;;;;53.05;33.58;;;11.00;99.90;;;;;;5030107;28;20037;-78
2021/10/31 00:55:40;;;;;;;42.35;31.67;;;11.00;99.90;;;;;;5013020;28;20045;-78
2021/10/31 00:58:10;;;;;;;46.88;32.85;;;11.00;99.90;;;;;;4996590;28;20551;-78
2021/10/31 01:00:37;;;;;;;44.08;32.53;;;11.00;99.90;;;;;;4994271;28;20049;-78
2021/10/31 01:03:03;;;;;;;51.13;33.97;;;10.90;99.90;;;;;;5029508;28;20124;-78
2021/10/31 01:05:35;;;;;;;45.45;33.90;;;10.80;99.90;;;;;;5012952;28;20103;-78
2021/10/31 01:08:17;;;;;;;53.53;35.30;;;10.80;99.90;;;;;;5013142;28;20476;-78
2021/10/31 01:11:02;;;;;;;49.15;34.72;;;10.80;99.90;;;;;;5012657;28;20050;-78
2021/10/31 01:13:53;;;;;;;46.47;33.38;;;10.70;99.90;;;;;;5046359;28;20402;-79
2021/10/31 01:16:50;;;;;;;47.50;35.03;;;10.70;99.90;;;;;;5010053;28;20065;-78
2021/10/31 01:19:44;;;;;;;54.80;35.47;;;10.60;99.90;;;;;;4993354;28;20081;-78
2021/10/31 01:22:33;;;;;;;50.78;35.72;;;10.50;99.90;;;;;;4969651;28;20079;-78
2021/10/31 01:25:06;;;;;;;56.17;37.53;;;10.50;99.90;;;;;;5029601;28;20103;-78
2021/10/31 01:27:44;;;;;;;60.50;37.40;;;10.50;99.90;;;;;;5013189;28;20115;-78
2021/10/31 01:30:38;;;;;;;53.70;37.03;;;10.40;99.90;;;;;;5045930;28;20056;-78
2021/10/31 01:33:17;;;;;;;57.88;37.75;;;10.40;99.90;;;;;;4995626;28;20631;-78
2021/10/31 01:36:10;;;;;;;56.00;36.92;;;10.30;99.90;;;;;;4996727;28;20053;-78
2021/10/31 01:39:01;;;;;;;52.83;37.17;;;10.30;99.90;;;;;;4996174;28;20052;-79
2021/10/31 01:41:44;;;;;;;65.15;39.15;;;10.30;99.90;;;;;;5009054;28;20045;-79
2021/10/31 01:44:32;;;;;;;58.17;38.97;;;10.20;99.90;;;;;;4993557;28;20548;-78
2021/10/31 01:47:23;;;;;;;60.15;38.50;;;10.20;99.90;;;;;;4996097;28;20037;-79
2021/10/31 01:50:01;;;;;;;63.17;41.40;;;10.20;99.90;;;;;;5009315;28;20054;-78
2021/10/31 01:52:41;;;;;;;55.63;37.40;;;10.10;99.90;;;;;;4993433;28;20379;-78
2021/10/31 01:55:21;;;;;;;54.75;38.83;;;10.00;99.90;;;;;;4977893;28;20488;-79
2021/10/31 01:57:54;;;;;;;58.63;38.47;;;10.00;99.90;;;;;;4977203;28;20046;-78
2021/10/31 02:00:20;;;;;;;62.53;41.28;;;10.00;99.90;;;;;;4996166;28;20543;-78
2021/10/31 02:02:47;;;;;;;67.35;42.88;;;10.00;99.90;;;;;;4996413;28;20512;-78
2021/10/31 02:05:17;;;;;;;78.07;45.55;;;10.00;99.90;;;;;;5012709;28;20050;-78
2021/10/31 02:07:52;;;;;;;76.00;46.67;;;10.00;99.90;;;;;;5029093;28;20049;-78
2021/10/31 02:10:19;;;;;;;70.47;43.75;;;10.00;99.90;;;;;;5009141;28;20137;-80
2021/10/31 02:12:47;;;;;;;81.88;46.63;;;10.00;99.90;;;;;;5008913;28;20046;-79
2021/10/31 02:15:17;;;;;;;71.97;44.65;;;10.00;99.90;;;;;;5025595;28;20050;-79
2021/10/31 02:17:47;;;;;;;72.78;46.17;;;10.00;99.90;;;;;;5009492;28;20477;-78
2021/10/31 02:20:14;;;;;;;72.57;44.33;;;10.00;99.90;;;;;;5011938;28;20042;-78
2021/10/31 02:22:43;;;;;;;76.07;47.95;;;9.90;99.90;;;;;;5029041;28;20396;-78
2021/10/31 02:25:10;;;;;;;75.43;47.45;;;9.90;99.90;;;;;;5029301;28;20041;-79
2021/10/31 02:27:42;;;;;;;85.80;47.25;;;9.90;99.90;;;;;;5029119;28;20410;-78
2021/10/31 02:30:09;;;;;;;76.78;47.22;;;9.90;99.90;;;;;;5023704;28;20387;-80
2021/10/31 02:32:35;;;;;;;79.85;47.78;;;9.80;99.90;;;;;;5025979;28;20046;-79
2021/10/31 02:35:01;;;;;;;74.85;44.95;;;9.80;99.90;;;;;;5025129;28;20312;-79
2021/10/31 02:37:27;;;;;;;72.82;45.63;;;9.80;99.90;;;;;;5008464;28;20054;-80
2021/10/31 02:39:54;;;;;;;81.13;46.83;;;9.70;99.90;;;;;;4992579;28;20046;-78
2021/10/31 02:42:20;;;;;;;80.60;47.45;;;9.70;99.90;;;;;;5011159;28;20041;-80
2021/10/31 02:44:47;;;;;;;90.25;49.63;;;9.70;99.90;;;;;;5014008;28;20127;-79
2021/10/31 02:47:22;;;;;;;81.05;47.60;;;9.60;99.90;;;;;;5015845;28;20128;-78
2021/10/31 02:49:48;;;;;;;78.13;45.40;;;9.60;99.90;;;;;;5031933;28;20052;-79
2021/10/31 02:52:24;;;;;;;79.22;45.38;;;9.60;99.90;;;;;;5031697;28;20512;-78
2021/10/31 02:55:29;;;;;;;85.05;49.08;;;9.50;99.90;;;;;;5015781;28;20053;-78
2021/10/31 02:58:10;;;;;;;72.05;45.33;;;9.50;99.90;;;;;;4920712;29;20510;-79
2021/10/31 03:00:39;;;;;;;78.72;45.42;;;9.40;99.90;;;;;;4936849;29;20047;-78
2021/10/31 03:03:07;;;;;;;87.50;49.25;;;9.40;99.90;;;;;;4936858;29;20043;-78
2021/10/31 03:05:34;;;;;;;88.35;47.88;;;9.40;99.90;;;;;;4937134;29;20078;-79
2021/10/31 03:08:01;;;;;;;86.20;50.22;;;9.40;99.90;;;;;;4921009;29;20170;-79
2021/10/31 03:10:27;;;;;;;99.82;51.78;;;9.40;99.90;;;;;;4936659;29;20086;-79
2021/10/31 03:12:55;;;;;;;74.57;45.38;;;9.40;99.90;;;;;;4920548;29;20047;-78
2021/10/31 03:15:22;;;;;;;94.63;49.65;;;9.40;99.90;;;;;;4952915;29;20408;-78
2021/10/31 03:17:49;;;;;;;87.07;48.60;;;9.40;99.90;;;;;;4920765;29;20113;-79
2021/10/31 03:20:15;;;;;;;93.05;50.63;;;9.40;99.90;;;;;;4936378;29;20078;-79
2021/10/31 03:22:41;;;;;;;92.68;50.75;;;9.40;99.90;;;;;;4952277;29;20531;-79
2021/10/31 03:25:08;;;;;;;98.05;51.78;;;9.40;99.90;;;;;;4920704;29;20133;-79
2021/10/31 03:27:34;;;;;;;109.82;51.78;;;9.40;99.90;;;;;;4952861;29;20094;-79
2021/10/31 03:30:00;;;;;;;100.47;51.20;;;9.40;99.90;;;;;;4935805;29;20130;-79
2021/10/31 03:32:26;;;;;;;104.68;53.60;;;9.40;99.90;;;;;;4936540;29;20051;-79
2021/10/31 03:34:53;;;;;;;104.40;53.15;;;9.40;99.90;;;;;;4964875;28;20049;-79
2021/10/31 03:37:19;;;;;;;117.65;55.95;;;9.50;99.90;;;;;;5031120;28;20092;-79
2021/10/31 03:39:48;;;;;;;109.47;53.55;;;9.60;99.90;;;;;;5015338;28;20397;-79
2021/10/31 03:42:14;;;;;;;99.90;52.63;;;9.60;99.90;;;;;;5014500;28;20401;-79
2021/10/31 03:44:48;;;;;;;117.20;55.72;;;9.60;99.90;;;;;;5031172;28;20099;-80
2021/10/31 03:47:16;;;;;;;126.82;56.97;;;9.60;99.90;;;;;;5014262;28;20056;-79
2021/10/31 03:49:43;;;;;;;142.43;61.40;;;9.70;99.90;;;;;;4982141;28;20049;-79
2021/10/31 03:52:09;;;;;;;159.07;62.13;;;9.80;99.90;;;;;;5014756;28;20511;-79
2021/10/31 03:54:35;;;;;;;150.43;60.95;;;9.80;99.90;;;;;;4997919;28;20052;-79
2021/10/31 03:57:01;;;;;;;142.02;61.08;;;9.80;99.90;;;;;;5030347;28;20049;-79
2021/10/31 03:59:27;;;;;;;143.05;60.83;;;9.90;99.90;;;;;;5014483;28;20052;-79
2021/10/31 04:01:52;;;;;;;125.80;57.30;;;9.80;99.90;;;;;;5014326;28;20046;-79
2021/10/31 04:04:19;;;;;;;127.80;60.28;;;9.90;99.90;;;;;;5030851;28;20179;-79
2021/10/31 04:06:45;;;;;;;128.02;58.83;;;9.90;99.90;;;;;;4997516;28;20395;-79
2021/10/31 04:09:11;;;;;;;111.85;57.60;;;9.90;99.90;;;;;;5014157;28;20567;-79
2021/10/31 04:11:37;;;;;;;117.03;57.00;;;9.90;99.90;;;;;;5047485;28;20049;-79
2021/10/31 04:14:04;;;;;;;114.10;55.15;;;9.90;99.90;;;;;;4998186;28;20485;-79
2021/10/31 04:16:30;;;;;;;102.55;53.45;;;9.90;99.90;;;;;;4996986;28;20052;-79
2021/10/31 04:18:56;;;;;;;96.40;52.47;;;9.90;99.90;;;;;;5047201;28;20045;-79
2021/10/31 04:21:22;;;;;;;102.93;50.33;;;9.90;99.90;;;;;;5000508;28;20038;-79
2021/10/31 04:23:48;;;;;;;90.97;49.53;;;9.90;99.90;;;;;;5013514;28;20052;-79
2021/10/31 04:26:14;;;;;;;93.70;50.90;;;10.00;99.90;;;;;;5013875;28;20493;-79
2021/10/31 04:28:40;;;;;;;91.57;49.67;;;10.00;99.90;;;;;;5010472;28;20060;-79
2021/10/31 04:31:06;;;;;;;86.88;49.08;;;9.90;99.90;;;;;;5010297;28;20496;-79
2021/10/31 04:33:34;;;;;;;91.50;49.28;;;10.00;99.90;;;;;;5026786;28;20136;-80
2021/10/31 04:36:00;;;;;;;84.18;47.15;;;10.00;99.90;;;;;;5026434;28;20046;-79
2021/10/31 04:38:30;;;;;;;80.57;45.25;;;10.00;99.90;;;;;;5026506;28;20401;-79
2021/10/31 04:40:56;;;;;;;84.32;46.00;;;10.10;99.90;;;;;;5008192;28;20080;-79
2021/10/31 04:43:23;;;;;;;89.05;49.15;;;10.10;99.90;;;;;;5029943;28;20124;-79
2021/10/31 04:45:49;;;;;;;89.03;48.15;;;10.00;99.90;;;;;;5043805;28;20041;-79
2021/10/31 04:48:15;;;;;;;84.63;46.38;;;10.10;99.90;;;;;;5029576;28;20073;-79
2021/10/31 04:50:42;;;;;;;92.13;48.92;;;10.10;99.90;;;;;;5014242;28;20381;-80
2021/10/31 04:53:08;;;;;;;91.03;47.28;;;10.10;99.90;;;;;;5009632;28;20054;-79
2021/10/31 04:55:39;;;;;;;79.90;45.03;;;10.10;99.90;;;;;;4981370;28;20416;-78
2021/10/31 04:58:06;;;;;;;81.15;44.53;;;10.10;99.90;;;;;;5013549;28;20056;-80
2021/10/31 05:00:33;;;;;;;72.32;43.20;;;10.10;99.90;;;;;;4993356;28;20053;-79
2021/10/31 05:02:59;;;;;;;79.75;45.28;;;10.20;99.90;;;;;;5010220;28;20045;-79
2021/10/31 05:05:25;;;;;;;81.45;46.35;;;10.10;99.90;;;;;;4993440;28;20046;-79
2021/10/31 05:07:55;;;;;;;86.32;46.72;;;10.20;99.90;;;;;;4993427;28;20045;-79
2021/10/31 05:10:26;;;;;;;78.60;44.92;;;10.20;99.90;;;;;;5026312;28;20049;-80
2021/10/31 05:12:53;;;;;;;79.00;45.37;;;10.20;99.90;;;;;;5030112;28;20648;-79
2021/10/31 05:15:19;;;;;;;69.75;44.08;;;10.20;99.90;;;;;;4997212;28;20413;-79
2021/10/31 05:17:46;;;;;;;71.25;44.55;;;10.20;99.90;;;;;;5029283;28;20191;-79
2021/10/31 05:20:13;;;;;;;73.57;44.65;;;10.20;99.90;;;;;;4996630;28;20037;-79
2021/10/31 05:22:40;;;;;;;63.63;40.80;;;10.20;99.90;;;;;;5046361;28;20084;-79
2021/10/31 05:25:08;;;;;;;76.35;45.42;;;10.20;99.90;;;;;;5029273;28;20099;-78
2021/10/31 05:27:34;;;;;;;70.30;43.53;;;10.30;99.90;;;;;;5028917;28;20041;-79
2021/10/31 05:30:01;;;;;;;67.50;42.50;;;10.20;99.90;;;;;;5026193;28;20103;-80
2021/10/31 05:32:35;;;;;;;60.40;41.42;;;10.20;99.90;;;;;;4980194;28;20042;-79
2021/10/31 05:35:03;;;;;;;63.83;40.65;;;10.20;99.90;;;;;;5029583;28;20868;-79
2021/10/31 05:37:37;;;;;;;69.30;41.95;;;10.20;99.90;;;;;;5029092;28;20060;-80
2021/10/31 05:40:05;;;;;;;68.43;43.72;;;10.30;99.90;;;;;;5012694;28;20083;-80
2021/10/31 05:42:32;;;;;;;64.88;41.88;;;10.30;99.90;;;;;;5011615;28;20124;-78
2021/10/31 05:44:58;;;;;;;69.55;43.45;;;10.30;99.90;;;;;;5045792;28;20404;-79
2021/10/31 05:47:24;;;;;;;64.40;41.63;;;10.30;99.90;;;;;;4993087;28;20045;-81
2021/10/31 05:49:51;;;;;;;57.83;41.58;;;10.30;99.90;;;;;;5028686;28;20401;-79
2021/10/31 05:52:18;;;;;;;67.05;40.22;;;10.30;99.90;;;;;;5012209;28;20045;-79
2021/10/31 05:54:44;;;;;;;59.55;39.90;;;10.30;99.90;;;;;;5029076;28;20054;-79
2021/10/31 05:57:10;;;;;;;64.72;41.00;;;10.30;99.90;;;;;;5019144;28;20050;-79
2021/10/31 05:59:36;;;;;;;58.95;39.85;;;10.40;99.90;;;;;;5034049;28;20046;-79
2021/10/31 06:02:03;;;;;;;57.08;38.95;;;10.40;99.90;;;;;;5008712;28;20050;-79
2021/10/31 06:04:31;;;;;;;58.88;38.97;;;10.40;99.90;;;;;;5027394;28;20045;-79
2021/10/31 06:06:57;;;;;;;50.03;37.28;;;10.40;99.90;;;;;;4995011;28;20041;-79
2021/10/31 06:09:23;;;;;;;53.90;37.90;;;10.40;99.90;;;;;;5010937;28;20084;-79
2021/10/31 06:11:49;;;;;;;58.70;38.42;;;10.40;99.90;;;;;;4995646;28;20505;-80
2021/10/31 06:14:15;;;;;;;54.50;37.33;;;10.40;99.90;;;;;;5012172;28;20053;-79
2021/10/31 06:16:42;;;;;;;49.65;37.45;;;10.40;99.90;;;;;;5028721;28;20050;-79
2021/10/31 06:19:08;;;;;;;52.08;36.75;;;10.40;99.90;;;;;;5030066;28;20044;-79
2021/10/31 06:21:34;;;;;;;52.72;37.58;;;10.30;99.90;;;;;;5002309;28;20038;-78
2021/10/31 06:24:00;;;;;;;50.33;36.97;;;10.40;99.90;;;;;;5015033;28;20045;-79
2021/10/31 06:26:26;;;;;;;50.25;35.17;;;10.40;99.90;;;;;;4999098;28;20045;-79
2021/10/31 06:28:52;;;;;;;48.88;37.25;;;10.40;99.90;;;;;;5028603;28;20045;-78
2021/10/31 06:31:18;;;;;;;47.17;35.88;;;10.40;99.90;;;;;;5028484;28;20056;-78
2021/10/31 06:33:45;;;;;;;53.38;38.58;;;10.40;99.90;;;;;;5011932;28;20050;-79
2021/10/31 06:36:10;;;;;;;54.65;38.08;;;10.40;99.90;;;;;;4995739;28;20052;-79
2021/10/31 06:38:38;;;;;;;51.33;36.65;;;10.40;99.90;;;;;;4996563;28;20405;-78
2021/10/31 06:41:07;;;;;;;50.72;36.13;;;10.40;99.90;;;;;;5014440;28;20046;-79
2021/10/31 06:43:37;;;;;;;58.70;39.22;;;10.40;99.90;;;;;;5014306;28;20535;-78
2021/10/31 06:46:03;;;;;;;48.10;35.80;;;10.40;99.90;;;;;;5030661;28;20045;-80
2021/10/31 06:48:29;;;;;;;53.58;36.17;;;10.40;99.90;;;;;;5047771;28;20116;-79
2021/10/31 06:50:56;;;;;;;48.13;38.72;;;10.40;99.90;;;;;;5014352;28;20042;-80
2021/10/31 06:53:23;;;;;;;52.33;35.65;;;10.40;99.90;;;;;;5030608;28;20045;-83
2021/10/31 06:55:49;;;;;;;47.58;36.42;;;10.40;99.90;;;;;;5029993;28;20045;-82
2021/10/31 06:58:15;;;;;;;44.05;35.35;;;10.40;99.90;;;;;;5014495;28;20048;-82
2021/10/31 07:00:42;;;;;;;46.95;35.33;;;10.40;99.90;;;;;;4996249;28;20509;-83
2021/10/31 07:03:08;;;;;;;49.60;36.55;;;10.40;99.90;;;;;;5015189;28;20041;-82
2021/10/31 07:05:34;;;;;;;47.97;35.33;;;10.40;99.90;;;;;;5015056;28;20064;-82
2021/10/31 07:08:01;;;;;;;45.75;33.85;;;10.40;99.90;;;;;;4998985;28;20132;-81
2021/10/31 07:10:27;;;;;;;46.03;34.67;;;10.40;99.90;;;;;;4999142;28;20042;-81
2021/10/31 07:12:53;;;;;;;44.80;34.33;;;10.40;99.90;;;;;;5013883;28;20049;-82
2021/10/31 07:15:19;;;;;;;41.60;34.05;;;10.40;99.90;;;;;;5015500;28;20428;-80
2021/10/31 07:17:45;;;;;;;43.65;33.38;;;10.50;99.90;;;;;;4998586;28;20049;-82
2021/10/31 07:20:13;;;;;;;41.42;31.98;;;10.50;99.90;;;;;;5009188;28;20068;-79
2021/10/31 07:22:41;;;;;;;42.55;31.80;;;10.50;99.90;;;;;;5014659;28;20041;-79
2021/10/31 07:25:08;;;;;;;42.60;32.10;;;10.50;99.90;;;;;;5048565;28;20060;-80
2021/10/31 07:27:35;;;;;;;44.38;31.60;;;10.50;99.90;;;;;;5031745;28;20397;-81
2021/10/31 07:30:02;;;;;;;170.02;151.15;;;10.60;99.90;;;;;;5014796;28;20066;-85
2021/10/31 07:32:28;;;;;;;42.53;34.25;;;10.60;99.90;;;;;;5014291;28;20041;-80
2021/10/31 07:34:55;;;;;;;36.45;29.02;;;10.70;99.90;;;;;;4981748;28;20077;-79
2021/10/31 07:37:21;;;;;;;35.35;28.33;;;10.70;99.90;;;;;;5029404;28;20471;-78
2021/10/31 07:39:49;;;;;;;33.65;27.10;;;10.70;99.90;;;;;;5011079;28;20461;-83
2021/10/31 07:42:15;;;;;;;32.00;25.23;;;10.70;99.90;;;;;;4997241;28;20052;-80
2021/10/31 07:44:44;;;;;;;35.50;27.55;;;10.70;99.90;;;;;;4998433;28;20051;-83
2021/10/31 07:47:10;;;;;;;35.17;27.50;;;10.70;99.90;;;;;;4998611;28;20548;-81
2021/10/31 07:49:37;;;;;;;33.08;26.75;;;10.70;99.90;;;;;;5007634;28;20045;-79
2021/10/31 07:52:04;;;;;;;37.63;29.23;;;10.70;99.90;;;;;;4997655;28;20053;-78
2021/10/31 07:54:30;;;;;;;35.80;28.65;;;10.80;99.90;;;;;;5014169;28;20389;-80
2021/10/31 07:57:00;;;;;;;34.60;27.40;;;10.80;99.90;;;;;;4996379;28;20076;-80
2021/10/31 07:59:29;;;;;;;31.45;27.35;;;10.90;99.90;;;;;;5054646;28;20041;-81
2021/10/31 08:01:55;;;;;;;32.15;25.77;;;10.90;99.90;;;;;;4999493;28;20421;-80
2021/10/31 08:04:22;;;;;;;32.72;26.10;;;11.00;99.90;;;;;;5030631;28;20438;-81
2021/10/31 08:06:49;;;;;;;30.67;26.10;;;11.00;99.90;;;;;;5046053;28;20083;-78
2021/10/31 08:09:16;;;;;;;32.08;26.88;;;11.10;99.90;;;;;;5012830;28;20045;-80
2021/10/31 08:11:45;;;;;;;27.38;24.33;;;11.10;99.90;;;;;;4997977;28;20057;-79
2021/10/31 08:14:11;;;;;;;33.15;25.55;;;11.20;99.90;;;;;;5007153;28;20413;-80
2021/10/31 08:16:38;;;;;;;28.20;24.00;;;11.30;99.90;;;;;;5043263;28;20144;-76
2021/10/31 08:19:05;;;;;;;25.83;23.13;;;11.50;99.90;;;;;;5029968;28;20041;-77
2021/10/31 08:21:33;;;;;;;24.63;22.10;;;11.60;99.90;;;;;;4995950;28;20293;-76
2021/10/31 08:23:59;;;;;;;24.98;21.90;;;11.80;99.90;;;;;;5006891;28;20049;-76
2021/10/31 08:26:26;;;;;;;26.25;20.63;;;12.00;99.90;;;;;;5013244;28;20041;-76
2021/10/31 08:28:55;;;;;;;21.08;18.90;;;12.10;99.90;;;;;;5012792;28;20037;-77
2021/10/31 08:31:27;;;;;;;23.38;20.30;;;12.00;99.90;;;;;;5012116;28;20038;-80
2021/10/31 08:33:57;;;;;;;21.08;18.92;;;12.10;99.90;;;;;;5004484;28;20404;-78
2021/10/31 08:36:24;;;;;;;21.45;19.27;;;12.00;99.90;;;;;;5010217;28;20065;-77
2021/10/31 08:38:50;;;;;;;20.70;18.50;;;12.10;99.90;;;;;;5029884;28;20045;-78
2021/10/31 08:41:21;;;;;;;20.08;17.58;;;12.00;99.90;;;;;;4980506;28;20069;-76
2021/10/31 08:43:48;;;;;;;22.65;18.13;;;11.90;99.90;;;;;;4996874;28;20146;-77
2021/10/31 08:46:15;;;;;;;19.75;17.55;;;12.00;99.90;;;;;;5012829;28;20065;-78
2021/10/31 08:48:42;;;;;;;19.25;17.25;;;12.20;99.90;;;;;;5029078;28;20099;-76
2021/10/31 08:51:08;;;;;;;18.25;16.35;;;12.80;99.90;;;;;;5045248;28;20401;-75
2021/10/31 08:53:35;;;;;;;16.95;15.13;;;13.10;99.90;;;;;;5046299;28;20371;-75
2021/10/31 08:56:01;;;;;;;20.10;14.50;;;13.40;99.90;;;;;;5028921;28;20041;-76
2021/10/31 08:58:28;;;;;;;21.95;18.92;;;13.80;99.90;;;;;;5045851;28;20080;-76
2021/10/31 09:00:54;;;;;;;17.23;13.88;;;14.10;99.90;;;;;;5028836;28;20061;-75
2021/10/31 09:03:20;;;;;;;15.88;14.27;;;14.70;99.90;;;;;;4996031;28;20056;-76
2021/10/31 09:05:46;;;;;;;14.13;12.65;;;15.10;99.90;;;;;;5012772;28;20064;-76
2021/10/31 09:08:12;;;;;;;13.60;11.30;;;15.10;99.90;;;;;;5031242;28;20050;-77
2021/10/31 09:10:39;;;;;;;14.65;12.07;;;15.30;99.90;;;;;;5019640;28;20052;-79
2021/10/31 09:13:06;;;;;;;12.60;11.30;;;15.50;99.90;;;;;;5028949;28;20523;-81
2021/10/31 09:15:33;;;;;;;12.93;11.63;;;15.10;99.90;;;;;;4980310;28;20057;-80
2021/10/31 09:18:01;;;;;;;12.60;11.07;;;15.20;99.90;;;;;;4992403;28;20140;-82
2021/10/31 09:20:32;;;;;;;13.05;11.57;;;14.90;99.90;;;;;;5009698;28;20041;-80
2021/10/31 09:23:02;;;;;;;12.55;10.75;;;14.90;99.90;;;;;;4990596;28;20076;-80
2021/10/31 09:25:29;;;;;;;13.65;11.75;;;14.70;99.90;;;;;;4988183;28;20037;-80
2021/10/31 09:27:57;;;;;;;14.27;11.25;;;14.70;99.90;;;;;;5012499;28;20405;-77
2021/10/31 09:30:26;;;;;;;13.80;12.30;;;14.40;99.90;;;;;;4992155;28;20049;-78
2021/10/31 09:32:53;;;;;;;12.68;10.82;;;14.40;99.90;;;;;;5028192;28;20055;-78
2021/10/31 09:35:25;;;;;;;14.75;12.25;;;14.30;99.90;;;;;;5009958;28;20056;-77
2021/10/31 09:37:56;;;;;;;12.88;11.57;;;14.40;99.90;;;;;;5028858;28;20134;-80
2021/10/31 09:40:23;;;;;;;12.85;11.55;;;14.50;99.90;;;;;;4978993;28;20041;-81
2021/10/31 09:42:51;;;;;;;12.73;11.55;;;14.70;99.90;;;;;;5012863;28;20049;-81
2021/10/31 09:45:20;;;;;;;12.25;10.95;;;15.10;99.90;;;;;;4995818;28;20072;-81
2021/10/31 09:47:58;;;;;;;11.63;10.20;;;15.80;99.90;;;;;;5012891;28;20099;-80
2021/10/31 09:50:26;;;;;;;12.35;10.95;;;16.60;99.90;;;;;;5027985;28;20049;-78
2021/10/31 09:52:53;;;;;;;18.98;15.18;;;16.90;99.90;;;;;;5030725;28;20456;-79
2021/10/31 09:55:20;;;;;;;13.30;10.75;;;16.90;99.90;;;;;;5015926;28;20053;-78
2021/10/31 09:57:46;;;;;;;12.48;11.05;;;17.00;99.90;;;;;;5015623;28;20053;-77
2021/10/31 10:00:14;;;;;;;12.90;10.90;;;17.00;99.90;;;;;;5015448;28;20052;-78
2021/10/31 10:05:25;;;;;;;11.38;10.18;;;16.70;99.90;;;;;;5015378;28;20052;-79
2021/10/31 10:08:26;;;;;;;14.98;11.55;;;17.00;99.90;;;;;;4993728;28;20562;-79
2021/10/31 10:10:54;;;;;;;10.60;9.60;;;17.00;99.90;;;;;;4939980;28;20051;-79
2021/10/31 10:13:31;;;;;;;12.82;9.70;;;16.60;99.90;;;;;;4956997;28;20051;-79
2021/10/31 10:16:21;;;;;;;14.35;10.90;;;16.90;99.90;;;;;;4923533;28;20050;-78
2021/10/31 10:18:48;;;;;;;15.23;13.18;;;16.90;99.90;;;;;;4972872;28;20059;-79
2021/10/31 10:21:27;;;;;;;10.40;9.40;;;16.80;99.90;;;;;;4956347;28;20057;-80
2021/10/31 10:24:06;;;;;;;11.10;8.73;;;17.30;99.90;;;;;;4956695;28;20101;-79
2021/10/31 10:26:35;;;;;;;9.48;8.30;;;17.60;99.90;;;;;;4956724;28;20082;-78
2021/10/31 10:29:22;;;;;;;13.32;9.30;;;17.90;99.90;;;;;;4955987;28;20346;-78
2021/10/31 10:31:56;;;;;;;14.00;9.75;;;17.60;99.90;;;;;;4974833;28;20133;-79
2021/10/31 10:34:33;;;;;;;10.77;9.63;;;17.00;99.90;;;;;;4941452;29;20135;-80
2021/10/31 10:37:09;;;;;;;12.82;11.35;;;16.60;99.90;;;;;;4965435;28;20111;-80
2021/10/31 10:39:37;;;;;;;11.15;8.82;;;16.30;99.90;;;;;;4972468;28;20023;-80
2021/10/31 10:42:04;;;;;;;11.20;9.68;;;16.50;99.90;;;;;;4981513;28;20051;-81
2021/10/31 10:44:38;;;;;;;11.10;9.82;;;16.70;99.90;;;;;;5005513;28;20064;-77
2021/10/31 10:47:12;;;;;;;10.60;8.88;;;16.90;99.90;;;;;;5028548;28;20075;-78
2021/10/31 10:49:41;;;;;;;11.60;10.40;;;16.70;99.90;;;;;;5008424;28;20428;-77
2021/10/31 10:52:19;;;;;;;12.90;9.27;;;16.90;99.90;;;;;;5036202;28;20075;-78
2021/10/31 10:54:48;;;;;;;10.90;9.55;;;17.30;99.90;;;;;;5026678;28;20046;-78
2021/10/31 10:57:14;;;;;;;11.52;8.75;;;17.70;99.90;;;;;;5021592;28;20050;-78
2021/10/31 10:59:41;;;;;;;12.05;8.90;;;18.00;99.90;;;;;;4999669;28;20041;-77
2021/10/31 11:02:13;;;;;;;10.77;8.73;;;18.20;99.90;;;;;;5015503;28;20102;-80
2021/10/31 11:04:46;;;;;;;10.52;8.85;;;18.00;99.90;;;;;;5047271;28;20448;-78
2021/10/31 11:07:13;;;;;;;10.07;8.35;;;18.00;99.90;;;;;;5032695;28;20053;-77
2021/10/31 11:09:40;;;;;;;9.05;7.78;;;17.90;99.90;;;;;;5015995;28;20128;-79
2021/10/31 11:12:28;;;;;;;11.65;7.75;;;17.40;99.90;;;;;;5030372;28;20049;-77
2021/10/31 11:14:57;;;;;;;16.35;7.93;;;17.90;99.90;;;;;;4996998;28;20409;-80
2021/10/31 11:17:24;;;;;;;10.38;7.25;;;18.20;99.90;;;;;;4998771;28;20056;-80
2021/10/31 11:19:52;;;;;;;9.13;7.15;;;18.70;99.90;;;;;;4998307;28;20385;-80
2021/10/31 11:22:20;;;;;;;7.95;6.32;;;19.00;99.90;;;;;;5014650;28;20646;-80
2021/10/31 11:24:48;;;;;;;7.35;6.65;;;19.90;99.90;;;;;;4998290;28;20073;-80
2021/10/31 11:27:23;;;;;;;7.53;6.72;;;19.90;99.90;;;;;;5029561;28;20084;-80
2021/10/31 11:29:51;;;;;;;7.28;6.05;;;19.90;98.40;;;;;;4997769;28;20041;-80
2021/10/31 11:32:20;;;;;;;8.75;7.63;;;19.90;99.90;;;;;;4998518;28;20408;-80
2021/10/31 11:34:50;;;;;;;6.43;5.47;;;19.70;99.90;;;;;;5012457;28;20050;-81
2021/10/31 11:37:20;;;;;;;7.75;5.80;;;19.90;99.90;;;;;;5030274;28;20053;-79
2021/10/31 11:39:49;;;;;;;9.23;5.88;;;20.10;99.90;;;;;;5044495;28;20550;-77
2021/10/31 11:42:16;;;;;;;7.88;5.53;;;20.10;99.90;;;;;;5029376;28;20176;-78
2021/10/31 11:45:08;;;;;;;6.45;5.45;;;20.10;99.90;;;;;;5014235;28;20050;-80
2021/10/31 11:47:37;;;;;;;7.47;5.07;;;19.90;99.90;;;;;;5015934;28;20042;-81
2021/10/31 11:50:08;;;;;;;5.88;4.93;;;19.50;99.90;;;;;;5032969;28;20068;-78
2021/10/31 11:52:52;;;;;;;7.75;5.90;;;19.10;99.90;;;;;;4997256;28;20049;-78
2021/10/31 11:55:24;;;;;;;59.42;53.05;;;18.60;99.90;;;;;;5064242;28;20045;-80
2021/10/31 11:57:55;;;;;;;7.63;6.05;;;18.10;99.90;;;;;;5012493;28;20050;-78
2021/10/31 12:00:25;;;;;;;17.33;15.52;;;17.50;99.90;;;;;;5029997;28;20080;-80
2021/10/31 12:02:58;;;;;;;18.83;14.43;;;17.30;99.90;;;;;;4997658;28;20052;-80
2021/10/31 12:05:36;;;;;;;22.70;19.38;;;17.20;99.90;;;;;;5012790;28;20405;-80
2021/10/31 12:08:04;;;;;;;23.67;20.17;;;17.00;99.90;;;;;;5030173;28;20111;-82
2021/10/31 12:10:45;;;;;;;7.90;5.90;;;16.80;99.90;;;;;;4997277;28;20052;-78
2021/10/31 12:13:18;;;;;;;8.80;6.03;;;16.50;99.90;;;;;;4997340;28;20436;-78
2021/10/31 12:16:14;;;;;;;28.95;25.88;;;16.30;99.90;;;;;;5012981;28;20077;-79
2021/10/31 12:18:48;;;;;;;9.27;8.10;;;16.20;99.90;;;;;;5013878;28;20041;-80
2021/10/31 12:21:17;;;;;;;21.83;19.42;;;16.20;99.90;;;;;;5043106;28;20042;-81
2021/10/31 12:23:52;;;;;;;7.25;6.55;;;16.10;99.90;;;;;;5010834;28;20054;-81
2021/10/31 12:26:20;;;;;;;13.95;12.18;;;16.00;99.90;;;;;;5020855;28;20057;-80
2021/10/31 12:28:46;;;;;;;8.40;6.50;;;16.00;99.90;;;;;;5045164;28;20045;-80
2021/10/31 12:31:28;;;;;;;9.05;5.90;;;16.00;99.90;;;;;;5015293;28;20052;-80
2021/10/31 12:34:27;;;;;;;8.23;6.05;;;15.90;99.90;;;;;;5021815;28;20049;-79
2021/10/31 12:36:55;;;;;;;8.77;6.57;;;15.80;99.90;;;;;;4908536;29;20039;-79
2021/10/31 12:39:25;;;;;;;6.20;4.78;;;15.60;99.90;;;;;;4930191;28;20043;-79
2021/10/31 12:42:13;;;;;;;7.63;4.82;;;15.40;99.90;;;;;;4953908;28;20097;-79
2021/10/31 12:44:44;;;;;;;5.60;4.20;;;15.40;99.90;;;;;;4938384;28;20042;-78
2021/10/31 12:47:15;;;;;;;7.63;4.03;;;15.30;99.90;;;;;;4954056;28;20573;-81